Kirby, West Virginia
Current Conditions -  °F | °C
As of 3:55 PM on Friday 19 Dec 2014 (Local Time) from KFRR Reporting Station
Broken Clouds Broken Clouds  
Wind Chill: 29°   Ceiling: 3300
Heat Index: 34°   Visibility: 10mi
Dew Point: 23°   Wind: 6mph
Humidity: 65%   Direction: 310°NW
Pressure: 30.17"   Gusts: NA
Location:  39.14°N, 78.67°W
Report Text: KFRR 192055Z AUTO 31005KT 10SM BKN033 01/M05 A3017 RMK AO1
Loading
Personal Weather Stations






























Interactive Weather Map New forecast layout! Learn more

10-Day Weather Forecast

Advertisements
Track Severe Weather on mobile